createdAt,value
2019-02-21T00:01:01.808Z,91.10
2019-02-21T00:03:30.039Z,91.30
2019-02-21T00:05:58.300Z,91.50
2019-02-21T00:08:26.610Z,91.70
2019-02-21T00:10:54.908Z,91.90
2019-02-21T00:13:23.130Z,92.10
2019-02-21T00:15:51.373Z,92.00
2019-02-21T00:18:20.423Z,92.00
2019-02-21T00:20:48.680Z,91.90
2019-02-21T00:23:16.907Z,92.10
2019-02-21T00:25:46.851Z,92.00
2019-02-21T00:28:15.153Z,92.20
2019-02-21T00:30:43.571Z,92.30
2019-02-21T00:33:12.327Z,92.30
2019-02-21T00:35:40.786Z,92.50
2019-02-21T00:38:09.329Z,92.50
2019-02-21T00:40:38.848Z,92.50
2019-02-21T00:43:07.271Z,92.70
2019-02-21T00:45:35.677Z,92.60
2019-02-21T00:48:04.568Z,92.70
2019-02-21T00:50:33.063Z,92.60
2019-02-21T00:53:01.506Z,92.70
2019-02-21T00:55:29.958Z,92.70
2019-02-21T00:57:59.357Z,92.80
2019-02-21T01:00:27.820Z,92.70
2019-02-21T01:02:56.246Z,92.70
2019-02-21T01:05:25.311Z,92.70
2019-02-21T01:07:53.750Z,92.80
2019-02-21T01:10:22.244Z,92.90
2019-02-21T01:12:50.810Z,92.80
2019-02-21T01:15:19.226Z,92.90
2019-02-21T01:17:47.653Z,92.90
2019-02-21T01:20:16.530Z,92.90
2019-02-21T01:22:44.951Z,93.00
2019-02-21T01:25:13.455Z,93.10
2019-02-21T01:27:42.477Z,93.20
2019-02-21T01:30:10.953Z,93.30
2019-02-21T01:32:39.373Z,93.40
2019-02-21T01:35:08.797Z,93.50
2019-02-21T01:37:37.250Z,93.40
2019-02-21T01:40:10.155Z,93.70
2019-02-21T01:42:38.580Z,93.40
2019-02-21T01:45:08.464Z,93.30
2019-02-21T01:47:38.410Z,93.30
2019-02-21T01:50:14.478Z,93.40
2019-02-21T01:52:42.995Z,93.40
2019-02-21T01:55:11.496Z,93.40
2019-02-21T01:57:39.984Z,93.40
2019-02-21T02:00:12.686Z,93.40
2019-02-21T02:02:41.193Z,93.40
2019-02-21T02:05:09.782Z,93.70
2019-02-21T02:07:39.070Z,93.70
2019-02-21T02:10:09.434Z,93.70
2019-02-21T02:12:37.878Z,93.70
2019-02-21T02:15:08.642Z,93.60
2019-02-21T02:17:37.078Z,93.70
2019-02-21T02:20:07.358Z,93.70
2019-02-21T02:22:36.446Z,94.00
2019-02-21T02:25:05.607Z,93.90
2019-02-21T02:27:38.194Z,93.80
2019-02-21T02:30:08.403Z,93.70
2019-02-21T02:32:36.890Z,93.80
2019-02-21T02:35:06.639Z,93.80
2019-02-21T02:37:35.833Z,93.70
2019-02-21T02:40:04.614Z,93.70
2019-02-21T02:42:33.118Z,93.70
2019-02-21T02:45:02.795Z,93.60
2019-02-21T02:47:31.243Z,93.60
2019-02-21T02:49:59.655Z,93.70
2019-02-21T02:52:28.122Z,93.50
2019-02-21T02:54:57.960Z,93.30
2019-02-21T02:57:26.423Z,93.30
2019-02-21T02:59:54.856Z,93.40
2019-02-21T03:02:23.273Z,93.30
2019-02-21T03:04:52.342Z,93.30
2019-02-21T03:07:22.182Z,93.20
2019-02-21T03:09:50.682Z,93.10
2019-02-21T03:12:19.214Z,93.10
2019-02-21T03:14:47.655Z,93.20
2019-02-21T03:17:16.090Z,93.10
2019-02-21T03:19:44.535Z,93.20
2019-02-21T03:22:13.965Z,93.20
2019-02-21T03:24:42.390Z,93.20
2019-02-21T03:27:10.833Z,93.20
2019-02-21T03:29:39.318Z,93.40
2019-02-21T03:32:07.758Z,92.80
2019-02-21T03:34:36.558Z,92.80
2019-02-21T03:37:05.050Z,92.90
2019-02-21T03:39:34.965Z,92.80
2019-02-21T03:42:03.561Z,92.80
2019-02-21T03:44:31.986Z,92.80
2019-02-21T03:47:00.449Z,92.90
2019-02-21T03:49:28.989Z,93.10
2019-02-21T03:51:57.400Z,92.90
2019-02-21T03:54:25.819Z,93.00
2019-02-21T03:56:54.305Z,93.00
2019-02-21T03:59:22.799Z,92.80
2019-02-21T04:01:51.297Z,92.80
2019-02-21T04:04:19.792Z,92.80
2019-02-21T04:06:48.535Z,92.80
2019-02-21T04:09:16.956Z,92.70
2019-02-21T04:11:48.287Z,92.90
2019-02-21T04:14:17.155Z,92.90
2019-02-21T04:16:45.670Z,92.80
2019-02-21T04:19:14.108Z,92.60
2019-02-21T04:21:42.687Z,92.60
2019-02-21T04:24:11.100Z,92.60
2019-02-21T04:26:39.512Z,92.60
2019-02-21T04:29:07.927Z,92.50
2019-02-21T04:31:36.359Z,92.60
2019-02-21T04:34:04.799Z,92.80
2019-02-21T04:36:33.365Z,93.00
2019-02-21T04:39:01.785Z,93.10
2019-02-21T04:41:30.891Z,93.10
2019-02-21T04:43:59.308Z,93.20
2019-02-21T04:46:27.722Z,93.20
2019-02-21T04:48:56.248Z,93.50
2019-02-21T04:51:24.704Z,93.60
2019-02-21T04:53:53.182Z,93.60
2019-02-21T04:56:22.023Z,93.70
2019-02-21T04:58:50.463Z,93.80
2019-02-21T05:01:18.892Z,93.90
2019-02-21T05:03:47.326Z,94.00
2019-02-21T05:06:16.396Z,93.80
2019-02-21T05:08:44.818Z,93.80
2019-02-21T05:11:13.238Z,93.90
2019-02-21T05:13:41.767Z,93.90
2019-02-21T05:16:10.199Z,93.80
2019-02-21T05:18:38.610Z,93.80
2019-02-21T05:21:07.043Z,93.90
2019-02-21T05:23:36.764Z,93.90
2019-02-21T05:26:06.156Z,94.00
2019-02-21T05:28:34.582Z,93.90
2019-02-21T05:31:08.405Z,94.00
2019-02-21T05:33:47.998Z,94.30
2019-02-21T05:36:24.274Z,94.10
2019-02-21T05:38:56.157Z,94.00
2019-02-21T05:41:26.263Z,94.10
2019-02-21T05:44:13.133Z,94.20
2019-02-21T05:46:43.267Z,95.00
2019-02-21T05:49:22.293Z,94.40
2019-02-21T05:51:59.000Z,94.40
2019-02-21T05:54:29.130Z,94.40
2019-02-21T05:57:02.929Z,94.30
2019-02-21T05:59:35.645Z,94.60
2019-02-21T06:02:09.063Z,94.70
2019-02-21T06:04:48.118Z,94.60
2019-02-21T06:07:20.153Z,94.80
2019-02-21T06:09:49.521Z,94.80
2019-02-21T06:12:33.498Z,94.60
2019-02-21T06:14:57.413Z,94.50
2019-02-21T06:17:34.296Z,94.70
2019-02-21T06:20:17.972Z,94.70
2019-02-21T06:22:48.308Z,94.70
2019-02-21T06:25:18.555Z,94.70
2019-02-21T06:27:49.972Z,94.70
2019-02-21T06:30:20.151Z,94.70
2019-02-21T06:32:48.559Z,94.60
2019-02-21T06:35:17.006Z,94.50
2019-02-21T06:37:45.491Z,94.50
2019-02-21T06:40:13.920Z,94.60
2019-02-21T06:42:42.436Z,94.80
2019-02-21T06:45:11.489Z,95.20
2019-02-21T06:47:40.046Z,94.70
2019-02-21T06:50:08.670Z,94.60
2019-02-21T06:52:37.110Z,94.70
2019-02-21T06:55:06.163Z,94.60
2019-02-21T06:57:34.586Z,94.50
2019-02-21T07:00:03.206Z,94.40
2019-02-21T07:02:33.732Z,94.30
2019-02-21T07:05:05.491Z,94.20
2019-02-21T07:07:34.021Z,94.20
2019-02-21T07:10:02.560Z,94.10
2019-02-21T07:12:31.083Z,94.00
2019-02-21T07:14:59.506Z,94.00
2019-02-21T07:17:30.619Z,94.00
2019-02-21T07:19:59.135Z,94.00
2019-02-21T07:22:27.951Z,93.90
2019-02-21T07:24:58.146Z,93.70
2019-02-21T07:27:28.057Z,93.70
2019-02-21T07:29:56.593Z,93.40
2019-02-21T07:32:25.771Z,93.10
2019-02-21T07:34:54.346Z,92.90
2019-02-21T07:37:25.963Z,92.50
2019-02-21T07:39:54.505Z,92.30
2019-02-21T07:42:23.026Z,92.10
2019-02-21T07:44:51.492Z,92.00
2019-02-21T07:47:20.213Z,91.90
2019-02-21T07:49:49.002Z,92.10
2019-02-21T07:52:17.505Z,92.20
2019-02-21T07:54:46.026Z,92.40
2019-02-21T07:57:14.555Z,92.40
2019-02-21T07:59:43.074Z,92.30
2019-02-21T08:02:11.665Z,92.40
2019-02-21T08:04:41.792Z,92.50
2019-02-21T08:07:11.917Z,92.10
2019-02-21T08:09:41.710Z,91.70
2019-02-21T08:12:10.422Z,91.70
2019-02-21T08:14:38.960Z,91.90
2019-02-21T08:17:07.697Z,91.50
2019-02-21T08:19:36.105Z,91.70
2019-02-21T08:22:04.587Z,91.00
2019-02-21T08:24:33.106Z,91.10
2019-02-21T08:27:01.523Z,91.30
2019-02-21T08:29:29.926Z,91.40
2019-02-21T08:31:58.433Z,90.90
2019-02-21T08:34:36.658Z,90.60
2019-02-21T08:37:05.062Z,90.10
2019-02-21T08:39:33.470Z,89.60
2019-02-21T08:42:04.897Z,90.00
2019-02-21T08:44:33.381Z,90.00
2019-02-21T08:47:01.867Z,90.20
2019-02-21T08:49:31.338Z,90.20
2019-02-21T08:52:01.397Z,90.70
2019-02-21T08:54:29.820Z,90.10
2019-02-21T08:57:02.118Z,90.20
2019-02-21T08:59:30.652Z,90.30
2019-02-21T09:01:59.080Z,90.40
2019-02-21T09:04:28.125Z,90.80
2019-02-21T09:06:56.783Z,90.60
2019-02-21T09:09:25.525Z,90.80
2019-02-21T09:11:54.060Z,91.80
2019-02-21T09:14:22.486Z,91.20
2019-02-21T09:16:50.897Z,90.80
2019-02-21T09:19:21.779Z,91.30
2019-02-21T09:21:50.242Z,90.00
2019-02-21T09:24:37.844Z,90.30
2019-02-21T09:26:48.834Z,90.30
2019-02-21T09:29:17.322Z,91.10
2019-02-21T09:31:45.908Z,90.80
2019-02-21T09:34:26.357Z,90.30
2019-02-21T09:36:54.795Z,90.10
2019-02-21T09:39:23.226Z,88.70
2019-02-21T09:41:54.119Z,87.10
2019-02-21T09:44:22.690Z,87.20
2019-02-21T09:46:51.539Z,86.00
2019-02-21T09:49:19.966Z,86.60
2019-02-21T09:51:48.771Z,85.80
2019-02-21T09:54:19.741Z,84.20
2019-02-21T09:56:52.832Z,83.00
2019-02-21T09:59:18.657Z,80.10
2019-02-21T10:01:47.080Z,77.30
2019-02-21T10:04:15.709Z,77.00
2019-02-21T10:06:44.129Z,75.40
2019-02-21T10:09:12.914Z,78.20
2019-02-21T10:11:41.511Z,80.20
2019-02-21T10:14:10.120Z,81.00
2019-02-21T10:16:38.554Z,80.70
2019-02-21T10:19:07.214Z,79.50
2019-02-21T10:21:35.618Z,77.80
2019-02-21T10:24:04.224Z,78.90
2019-02-21T10:26:32.910Z,78.90
2019-02-21T10:29:01.630Z,80.00
2019-02-21T10:31:30.051Z,80.20
2019-02-21T10:33:58.709Z,81.70
2019-02-21T10:36:27.324Z,82.00
2019-02-21T10:38:55.828Z,81.80
2019-02-21T10:41:24.251Z,81.90
2019-02-21T10:43:52.873Z,81.10
2019-02-21T10:46:21.579Z,79.60
2019-02-21T10:48:50.007Z,77.70
2019-02-21T10:51:18.408Z,74.20
2019-02-21T10:53:48.696Z,71.90
2019-02-21T10:56:17.606Z,69.20
2019-02-21T10:58:46.091Z,69.60
2019-02-21T11:01:14.733Z,69.40
2019-02-21T11:03:43.203Z,68.20
2019-02-21T11:06:11.861Z,68.60
2019-02-21T11:08:40.397Z,67.60
2019-02-21T11:11:10.106Z,68.70
2019-02-21T11:13:38.515Z,67.40
2019-02-21T11:16:07.111Z,64.90
2019-02-21T11:18:35.626Z,63.00
2019-02-21T11:21:04.106Z,61.40
2019-02-21T11:23:32.534Z,61.50
2019-02-21T11:26:01.056Z,59.30
2019-02-21T11:28:29.500Z,58.00
2019-02-21T11:30:57.930Z,56.00
2019-02-21T11:33:26.599Z,53.60
2019-02-21T11:35:55.212Z,50.90
2019-02-21T11:38:23.645Z,49.80
2019-02-21T11:40:52.165Z,50.20
2019-02-21T11:43:20.841Z,51.80
2019-02-21T11:45:55.115Z,52.20
2019-02-21T11:48:19.493Z,50.60
2019-02-21T11:50:48.094Z,49.20
2019-02-21T11:53:16.641Z,48.20
2019-02-21T11:55:45.622Z,48.20
2019-02-21T11:58:14.295Z,47.50
2019-02-21T12:00:42.786Z,45.50
2019-02-21T12:03:11.205Z,46.80
2019-02-21T12:05:39.642Z,46.80
2019-02-21T12:08:08.211Z,48.40
2019-02-21T12:10:36.734Z,48.80
2019-02-21T12:13:05.265Z,49.50
2019-02-21T12:15:33.733Z,51.00
2019-02-21T12:18:03.967Z,51.40
2019-02-21T12:20:32.409Z,52.70
2019-02-21T12:23:01.162Z,53.00
2019-02-21T12:25:29.766Z,52.90
2019-02-21T12:27:58.227Z,53.10
2019-02-21T12:30:27.015Z,52.50
2019-02-21T12:32:55.509Z,52.10
2019-02-21T12:35:29.712Z,53.10
2019-02-21T12:37:54.065Z,53.20
2019-02-21T12:40:23.383Z,54.50
2019-02-21T12:42:51.921Z,56.80
2019-02-21T12:45:25.018Z,57.20
2019-02-21T12:47:54.214Z,57.60
2019-02-21T12:50:22.940Z,57.40
2019-02-21T12:52:51.354Z,56.40
2019-02-21T12:55:27.994Z,54.70
2019-02-21T12:57:50.508Z,53.20
2019-02-21T13:00:22.840Z,52.90
2019-02-21T13:02:51.515Z,53.30
2019-02-21T13:05:20.122Z,54.10
2019-02-21T13:07:48.626Z,54.40
2019-02-21T13:10:19.327Z,53.90
2019-02-21T13:12:47.895Z,55.50
2019-02-21T13:15:16.397Z,55.10
2019-02-21T13:17:44.902Z,56.10
2019-02-21T13:20:14.817Z,56.90
2019-02-21T13:22:43.370Z,57.80
2019-02-21T13:25:14.065Z,57.80
2019-02-21T13:27:42.639Z,57.50
2019-02-21T13:30:14.385Z,57.70
2019-02-21T13:32:43.081Z,59.50
2019-02-21T13:35:13.389Z,60.90
2019-02-21T13:37:42.392Z,62.10
2019-02-21T13:40:20.131Z,64.20
2019-02-21T13:42:47.692Z,65.40
2019-02-21T13:45:19.017Z,65.80
2019-02-21T13:47:47.430Z,66.10
2019-02-21T13:50:18.995Z,65.60
2019-02-21T13:52:47.640Z,65.80
2019-02-21T13:55:16.089Z,65.90
2019-02-21T13:57:44.558Z,66.70
2019-02-21T14:00:16.248Z,67.20
2019-02-21T14:02:45.185Z,67.60
2019-02-21T14:05:14.262Z,68.40
2019-02-21T14:07:42.730Z,68.00
2019-02-21T14:10:13.007Z,68.40
2019-02-21T14:12:41.559Z,68.70
2019-02-21T14:15:18.820Z,69.40
2019-02-21T14:17:47.414Z,68.80
2019-02-21T14:20:15.937Z,70.40
2019-02-21T14:22:44.363Z,69.60
2019-02-21T14:25:13.107Z,69.70
2019-02-21T14:27:41.536Z,70.00
2019-02-21T14:30:12.985Z,70.60
2019-02-21T14:32:41.481Z,71.10
2019-02-21T14:35:13.892Z,70.80
2019-02-21T14:37:42.405Z,71.40
2019-02-21T14:40:12.810Z,71.40
2019-02-21T14:42:41.539Z,71.30
2019-02-21T14:45:21.150Z,70.90
2019-02-21T14:47:49.670Z,70.80
2019-02-21T14:50:18.215Z,70.10
2019-02-21T14:52:46.803Z,70.70
2019-02-21T14:55:16.588Z,70.90
2019-02-21T14:57:45.029Z,71.00
2019-02-21T15:00:18.885Z,71.40
2019-02-21T15:02:47.404Z,71.00
2019-02-21T15:05:15.976Z,71.70
2019-02-21T15:07:44.394Z,71.40
2019-02-21T15:10:12.957Z,71.00
2019-02-21T15:12:41.396Z,70.80
2019-02-21T15:15:18.879Z,72.10
2019-02-21T15:17:47.304Z,71.80
2019-02-21T15:20:20.746Z,72.00
2019-02-21T15:22:49.182Z,71.80
2019-02-21T15:25:17.772Z,71.90
2019-02-21T15:27:46.250Z,72.10
2019-02-21T15:30:22.502Z,72.60
2019-02-21T15:32:50.973Z,72.70
2019-02-21T15:35:19.804Z,72.70
2019-02-21T15:37:48.730Z,73.50
2019-02-21T15:40:18.811Z,72.30
2019-02-21T15:42:47.235Z,72.60
2019-02-21T15:45:23.465Z,72.70
2019-02-21T15:47:50.855Z,73.20
2019-02-21T15:50:20.124Z,73.20
2019-02-21T15:52:49.300Z,73.40
2019-02-21T15:55:19.665Z,73.20
2019-02-21T15:57:48.159Z,73.50
2019-02-21T16:00:18.785Z,72.90
2019-02-21T16:02:47.402Z,74.00
2019-02-21T16:05:15.904Z,73.70
2019-02-21T16:07:44.474Z,73.70
2019-02-21T16:10:15.968Z,73.80
2019-02-21T16:12:44.968Z,74.40
2019-02-21T16:15:16.530Z,74.40
2019-02-21T16:17:46.788Z,74.80
2019-02-21T16:20:17.182Z,75.00
2019-02-21T16:22:46.909Z,75.40
2019-02-21T16:25:18.405Z,75.40
2019-02-21T16:27:46.830Z,75.80
2019-02-21T16:30:16.343Z,76.20
2019-02-21T16:32:44.889Z,76.00
2019-02-21T16:35:14.945Z,75.50
2019-02-21T16:37:43.469Z,75.80
2019-02-21T16:40:17.015Z,76.10
2019-02-21T16:42:46.039Z,76.50
2019-02-21T16:45:16.137Z,76.80
2019-02-21T16:47:44.722Z,76.80
2019-02-21T16:50:14.484Z,77.90
2019-02-21T16:52:43.029Z,78.00
2019-02-21T16:55:16.773Z,78.60
2019-02-21T16:57:47.399Z,78.80
2019-02-21T17:00:18.349Z,78.80
2019-02-21T17:02:46.924Z,78.80
2019-02-21T17:05:15.983Z,79.40
2019-02-21T17:07:44.408Z,79.10
2019-02-21T17:10:17.519Z,78.80
2019-02-21T17:12:46.193Z,78.80
2019-02-21T17:15:16.797Z,78.60
2019-02-21T17:17:45.356Z,78.00
2019-02-21T17:20:15.959Z,77.70
2019-02-21T17:22:44.519Z,77.70
2019-02-21T17:25:14.821Z,77.90
2019-02-21T17:27:44.489Z,77.00
2019-02-21T17:30:15.673Z,76.80
2019-02-21T17:32:44.105Z,77.80
2019-02-21T17:35:12.718Z,76.80
2019-02-21T17:37:42.700Z,76.40
2019-02-21T17:40:19.856Z,76.10
2019-02-21T17:42:48.711Z,76.20
2019-02-21T17:45:17.406Z,76.10
2019-02-21T17:47:46.252Z,76.60
2019-02-21T17:50:19.217Z,77.20
2019-02-21T17:52:47.754Z,77.80
2019-02-21T17:55:16.949Z,78.40
2019-02-21T17:57:45.474Z,79.20
2019-02-21T18:00:17.458Z,80.10
2019-02-21T18:02:45.253Z,80.70
2019-02-21T18:05:13.767Z,81.90
2019-02-21T18:07:44.566Z,81.70
2019-02-21T18:10:27.578Z,82.00
2019-02-21T18:12:56.114Z,82.50
2019-02-21T18:15:24.783Z,84.60
2019-02-21T18:17:53.210Z,85.70
2019-02-21T18:20:21.966Z,86.50
2019-02-21T18:22:50.844Z,87.00
2019-02-21T18:25:35.462Z,87.90
2019-02-21T18:28:03.949Z,88.40
2019-02-21T18:30:35.616Z,89.40
2019-02-21T18:33:04.267Z,89.70
2019-02-21T18:35:33.008Z,90.20
2019-02-21T18:38:01.725Z,90.10
2019-02-21T18:40:30.428Z,90.40
2019-02-21T18:42:59.966Z,90.50
2019-02-21T18:45:28.737Z,90.90
2019-02-21T18:47:57.367Z,90.90
2019-02-21T18:50:37.356Z,90.80
2019-02-21T18:52:56.303Z,90.90
2019-02-21T18:55:25.168Z,90.80
2019-02-21T18:57:53.692Z,90.80
2019-02-21T19:00:24.625Z,91.10
2019-02-21T19:02:53.356Z,91.10
2019-02-21T19:05:22.113Z,91.00
2019-02-21T19:08:00.508Z,91.00
2019-02-21T19:10:22.165Z,91.00
2019-02-21T19:12:50.852Z,90.70
2019-02-21T19:15:20.631Z,90.60
2019-02-21T19:17:49.396Z,90.30
2019-02-21T19:20:19.269Z,90.60
2019-02-21T19:22:47.745Z,90.40
2019-02-21T19:25:16.577Z,90.00
2019-02-21T19:27:45.105Z,90.60
2019-02-21T19:30:34.784Z,90.20
2019-02-21T19:33:03.538Z,89.40
2019-02-21T19:35:32.198Z,88.80
2019-02-21T19:38:09.778Z,88.90
2019-02-21T19:40:30.942Z,89.20
2019-02-21T19:42:59.518Z,89.70
2019-02-21T19:45:28.257Z,89.80
2019-02-21T19:47:56.882Z,89.00
2019-02-21T19:50:26.033Z,89.40
2019-02-21T19:52:54.681Z,89.30
2019-02-21T19:55:23.371Z,89.20
2019-02-21T19:57:53.136Z,88.80
2019-02-21T20:00:24.803Z,88.70
2019-02-21T20:02:53.406Z,89.00
2019-02-21T20:05:22.267Z,89.60
2019-02-21T20:07:53.527Z,88.40
2019-02-21T20:10:22.284Z,88.70
2019-02-21T20:12:50.930Z,88.70
2019-02-21T20:15:23.658Z,88.80
2019-02-21T20:17:52.088Z,88.70
2019-02-21T20:20:23.490Z,88.60
2019-02-21T20:22:52.159Z,88.70
2019-02-21T20:25:20.647Z,88.90
2019-02-21T20:27:49.219Z,88.70
2019-02-21T20:30:20.075Z,88.50
2019-02-21T20:32:48.681Z,88.70
2019-02-21T20:35:17.480Z,89.20
2019-02-21T20:37:46.341Z,89.00
2019-02-21T20:40:17.933Z,89.30
2019-02-21T20:42:46.382Z,89.00
2019-02-21T20:45:15.889Z,89.00
2019-02-21T20:47:44.635Z,89.20
2019-02-21T20:50:13.959Z,89.70
2019-02-21T20:52:42.854Z,89.70
2019-02-21T20:55:13.830Z,89.80
2019-02-21T20:57:42.752Z,90.30
2019-02-21T21:00:13.920Z,90.30
2019-02-21T21:02:42.554Z,90.40
2019-02-21T21:05:12.578Z,90.80
2019-02-21T21:07:41.394Z,90.70
2019-02-21T21:10:16.922Z,91.00
2019-02-21T21:12:45.915Z,91.00
2019-02-21T21:15:14.878Z,91.40
2019-02-21T21:17:43.529Z,91.70
2019-02-21T21:20:16.840Z,91.90
2019-02-21T21:22:44.806Z,92.10
2019-02-21T21:25:19.277Z,92.20
2019-02-21T21:27:47.891Z,92.40
2019-02-21T21:30:17.520Z,92.80
2019-02-21T21:32:46.121Z,93.10
2019-02-21T21:35:15.435Z,93.40
2019-02-21T21:37:43.931Z,94.10
2019-02-21T21:40:14.813Z,94.30
2019-02-21T21:42:43.407Z,94.70
2019-02-21T21:45:14.507Z,95.30
2019-02-21T21:47:43.121Z,95.60
2019-02-21T21:50:14.883Z,95.90
2019-02-21T21:52:43.325Z,96.10
2019-02-21T21:55:11.890Z,96.40
2019-02-21T21:57:40.458Z,96.70
2019-02-21T22:00:11.946Z,97.00
2019-02-21T22:02:41.602Z,97.10
2019-02-21T22:05:10.213Z,97.20
2019-02-21T22:07:38.750Z,97.40
2019-02-21T22:10:10.424Z,97.60
2019-02-21T22:12:38.975Z,97.70
2019-02-21T22:15:12.025Z,97.90
2019-02-21T22:17:42.207Z,98.00
2019-02-21T22:20:12.115Z,98.10
2019-02-21T22:22:41.987Z,98.40
2019-02-21T22:25:14.206Z,98.40
2019-02-21T22:27:42.868Z,98.40
2019-02-21T22:30:14.457Z,98.40
2019-02-21T22:32:42.993Z,98.40
2019-02-21T22:35:11.667Z,98.40
2019-02-21T22:37:40.901Z,98.80
2019-02-21T22:40:14.654Z,98.60
2019-02-21T22:42:43.084Z,98.50
2019-02-21T22:45:11.707Z,98.60
2019-02-21T22:47:40.197Z,98.60
2019-02-21T22:50:11.948Z,99.10
2019-02-21T22:52:41.212Z,98.90
2019-02-21T22:55:10.470Z,98.90
2019-02-21T22:57:39.272Z,98.90
2019-02-21T23:00:31.973Z,99.00
2019-02-21T23:03:01.545Z,99.20
2019-02-21T23:05:55.426Z,99.30
2019-02-21T23:08:41.882Z,99.20
2019-02-21T23:11:11.189Z,99.20
2019-02-21T23:13:40.917Z,99.20
2019-02-21T23:16:10.931Z,99.40
2019-02-21T23:18:39.582Z,99.30
2019-02-21T23:21:08.310Z,99.40
2019-02-21T23:23:38.139Z,99.30
2019-02-21T23:26:06.647Z,99.30
2019-02-21T23:28:35.075Z,99.30
2019-02-21T23:31:03.575Z,99.40
2019-02-21T23:33:33.748Z,99.40
2019-02-21T23:36:03.055Z,99.40
2019-02-21T23:38:31.482Z,99.50
2019-02-21T23:41:00.037Z,99.40
2019-02-21T23:43:28.559Z,99.70
2019-02-21T23:45:57.044Z,99.80
2019-02-21T23:48:25.446Z,99.90
2019-02-21T23:50:53.872Z,99.80
2019-02-21T23:53:23.630Z,99.90
2019-02-21T23:55:52.246Z,99.70
2019-02-21T23:58:20.675Z,99.60
